createdAt,value
2016-05-21T00:00:27.326Z,1010.55
2016-05-21T00:01:27.375Z,1010.51
2016-05-21T00:02:27.394Z,1010.43
2016-05-21T00:03:27.444Z,1010.46
2016-05-21T00:04:27.461Z,1010.48
2016-05-21T00:05:27.511Z,1010.48
2016-05-21T00:06:27.544Z,1010.49
2016-05-21T00:07:27.580Z,1010.48
2016-05-21T00:08:27.613Z,1010.48
2016-05-21T00:09:27.647Z,1010.49
2016-05-21T00:10:27.680Z,1010.48
2016-05-21T00:11:27.727Z,1010.44
2016-05-21T00:12:27.777Z,1010.46
2016-05-21T00:13:27.826Z,1010.46
2016-05-21T00:14:27.875Z,1010.41
2016-05-21T00:15:27.926Z,1010.42
2016-05-21T00:16:27.968Z,1010.4
2016-05-21T00:17:28.007Z,1010.41
2016-05-21T00:18:28.047Z,1010.39
2016-05-21T00:19:28.087Z,1010.34
2016-05-21T00:20:28.141Z,1010.4
2016-05-21T00:21:28.179Z,1010.39
2016-05-21T00:22:28.232Z,1010.37
2016-05-21T00:23:28.251Z,1010.34
2016-05-21T00:24:28.288Z,1010.31
2016-05-21T00:25:28.324Z,1010.33
2016-05-21T00:26:28.468Z,1010.37
2016-05-21T00:27:28.394Z,1010.35
2016-05-21T00:28:28.428Z,1010.33
2016-05-21T00:29:28.463Z,1010.31
2016-05-21T00:30:28.497Z,1010.29
2016-05-21T00:31:28.532Z,1010.33
2016-05-21T00:32:28.566Z,1010.32
2016-05-21T00:33:28.600Z,1010.3
2016-05-21T00:34:28.634Z,1010.28
2016-05-21T00:35:28.668Z,1010.27
2016-05-21T00:36:28.717Z,1010.26
2016-05-21T00:37:28.736Z,1010.27
2016-05-21T00:38:28.770Z,1010.28
2016-05-21T00:39:28.819Z,1010.27
2016-05-21T00:40:28.853Z,1010.23
2016-05-21T00:41:28.887Z,1010.25
2016-05-21T00:42:28.921Z,1010.26
2016-05-21T00:43:28.955Z,1010.24
2016-05-21T00:44:28.988Z,1010.27
2016-05-21T00:45:29.023Z,1010.25
2016-05-21T00:46:29.058Z,1010.26
2016-05-21T00:47:29.091Z,1010.25
2016-05-21T00:48:29.125Z,1010.26
2016-05-21T00:49:29.158Z,1010.25
2016-05-21T00:50:29.193Z,1010.24
2016-05-21T00:51:29.227Z,1010.23
2016-05-21T00:52:29.260Z,1010.2
2016-05-21T00:53:29.294Z,1010.2
2016-05-21T00:54:29.343Z,1010.19
2016-05-21T00:55:29.362Z,1010.22
2016-05-21T00:56:29.396Z,1010.18
2016-05-21T00:57:29.445Z,1010.16
2016-05-21T00:58:29.479Z,1010.18
2016-05-21T00:59:29.513Z,1010.15
2016-05-21T01:00:29.548Z,1010.16
2016-05-21T01:01:29.582Z,1010.12
2016-05-21T01:02:29.615Z,1010.15
2016-05-21T01:03:29.649Z,1010.14
2016-05-21T01:04:29.684Z,1010.13
2016-05-21T01:05:29.717Z,1010.14
2016-05-21T01:06:29.751Z,1010.12
2016-05-21T01:07:29.785Z,1010.11
2016-05-21T01:08:29.819Z,1010.09
2016-05-21T01:09:29.853Z,1010.08
2016-05-21T01:10:29.886Z,1010.07
2016-05-21T01:11:29.920Z,1010.09
2016-05-21T01:12:29.955Z,1010.11
2016-05-21T01:13:29.988Z,1010.14
2016-05-21T01:14:30.039Z,1010.11
2016-05-21T01:15:30.056Z,1010.13
2016-05-21T01:16:30.091Z,1010.14
2016-05-21T01:17:30.125Z,1010.08
2016-05-21T01:18:30.158Z,1010.11
2016-05-21T01:19:30.192Z,1010.1
2016-05-21T01:20:30.227Z,1010.11
2016-05-21T01:21:30.276Z,1010.12
2016-05-21T01:22:30.310Z,1010.1
2016-05-21T01:23:30.344Z,1010.12
2016-05-21T01:24:30.377Z,1010.1
2016-05-21T01:25:30.412Z,1010.12
2016-05-21T01:26:30.570Z,1010.11
2016-05-21T01:27:30.479Z,1010.11
2016-05-21T01:28:30.513Z,1010.14
2016-05-21T01:29:30.548Z,1010.13
2016-05-21T01:30:30.582Z,1010.12
2016-05-21T01:31:30.615Z,1010.08
2016-05-21T01:32:30.649Z,1010.11
2016-05-21T01:33:30.684Z,1010.07
2016-05-21T01:34:30.717Z,1010.09
2016-05-21T01:35:30.751Z,1010.03
2016-05-21T01:36:30.785Z,1010.06
2016-05-21T01:37:30.819Z,1010.06
2016-05-21T01:38:30.853Z,1010.07
2016-05-21T01:39:30.887Z,1010.09
2016-05-21T01:40:30.920Z,1010.04
2016-05-21T01:41:31.330Z,1010.08
2016-05-21T01:42:30.989Z,1010.08
2016-05-21T01:43:31.023Z,1010.05
2016-05-21T01:44:31.057Z,1010.03
2016-05-21T01:45:31.091Z,1010.03
2016-05-21T01:46:31.125Z,1010.03
2016-05-21T01:47:31.158Z,1010.09
2016-05-21T01:48:31.192Z,1010.08
2016-05-21T01:49:31.227Z,1010.08
2016-05-21T01:50:31.260Z,1010.08
2016-05-21T01:51:31.294Z,1010.06
2016-05-21T01:52:31.327Z,1010.11
2016-05-21T01:53:31.362Z,1010.09
2016-05-21T01:54:31.396Z,1010.09
2016-05-21T01:55:31.430Z,1010.12
2016-05-21T01:56:31.746Z,1010.1
2016-05-21T01:57:31.498Z,1010.12
2016-05-21T01:58:31.532Z,1010.08
2016-05-21T01:59:31.566Z,1010.08
2016-05-21T02:00:31.615Z,1010.08
2016-05-21T02:01:31.634Z,1010.06
2016-05-21T02:02:31.667Z,1010.06
2016-05-21T02:03:31.701Z,1010.09
2016-05-21T02:04:31.735Z,1010.09
2016-05-21T02:05:31.769Z,1010.13
2016-05-21T02:06:31.803Z,1010.14
2016-05-21T02:07:31.837Z,1010.15
2016-05-21T02:08:31.870Z,1010.16
2016-05-21T02:09:31.905Z,1010.15
2016-05-21T02:10:31.939Z,1010.13
2016-05-21T02:11:31.973Z,1010.14
2016-05-21T02:12:32.023Z,1010.12
2016-05-21T02:13:32.041Z,1010.12
2016-05-21T02:14:32.075Z,1010.12
2016-05-21T02:15:32.125Z,1010.14
2016-05-21T02:16:32.142Z,1010.12
2016-05-21T02:17:32.192Z,1010.13
2016-05-21T02:18:32.210Z,1010.13
2016-05-21T02:19:32.244Z,1010.12
2016-05-21T02:20:32.278Z,1010.08
2016-05-21T02:21:32.313Z,1010.11
2016-05-21T02:22:32.346Z,1010.07
2016-05-21T02:23:32.396Z,1010.09
2016-05-21T02:24:32.430Z,1010.06
2016-05-21T02:25:32.449Z,1010.04
2016-05-21T02:26:32.497Z,1010.04
2016-05-21T02:27:32.531Z,1010.07
2016-05-21T02:28:32.550Z,1010.06
2016-05-21T02:29:32.599Z,1010.09
2016-05-21T02:30:32.633Z,1010.06
2016-05-21T02:31:32.668Z,1010.03
2016-05-21T02:32:32.701Z,1010.05
2016-05-21T02:33:32.735Z,1010.04
2016-05-21T02:34:32.753Z,1010
2016-05-21T02:35:32.804Z,1009.99
2016-05-21T02:36:32.820Z,1009.95
2016-05-21T02:37:32.871Z,1009.97
2016-05-21T02:38:32.905Z,1009.94
2016-05-21T02:39:32.939Z,1009.95
2016-05-21T02:40:32.973Z,1009.98
2016-05-21T02:41:32.991Z,1009.97
2016-05-21T02:42:33.040Z,1009.97
2016-05-21T02:43:33.059Z,1009.97
2016-05-21T02:44:33.092Z,1009.94
2016-05-21T02:45:33.127Z,1009.92
2016-05-21T02:46:33.175Z,1009.94
2016-05-21T02:47:33.210Z,1009.93
2016-05-21T02:48:33.244Z,1009.94
2016-05-21T02:49:33.278Z,1009.93
2016-05-21T02:50:33.297Z,1009.96
2016-05-21T02:51:33.346Z,1009.93
2016-05-21T02:52:33.427Z,1009.87
2016-05-21T02:53:33.414Z,1009.89
2016-05-21T02:54:33.447Z,1009.9
2016-05-21T02:55:33.482Z,1009.89
2016-05-21T02:56:33.922Z,1009.98
2016-05-21T02:57:33.549Z,1009.92
2016-05-21T02:58:33.568Z,1009.92
2016-05-21T02:59:33.618Z,1009.91
2016-05-21T03:00:33.652Z,1009.91
2016-05-21T03:01:33.670Z,1009.89
2016-05-21T03:02:33.718Z,1009.9
2016-05-21T03:03:33.738Z,1009.9
2016-05-21T03:04:33.787Z,1009.92
2016-05-21T03:05:33.821Z,1009.87
2016-05-21T03:06:33.854Z,1009.89
2016-05-21T03:07:33.873Z,1009.92
2016-05-21T03:08:33.923Z,1009.88
2016-05-21T03:09:33.957Z,1009.87
2016-05-21T03:10:33.990Z,1009.9
2016-05-21T03:11:34.025Z,1009.89
2016-05-21T03:12:34.043Z,1009.87
2016-05-21T03:13:34.092Z,1009.88
2016-05-21T03:14:34.126Z,1009.9
2016-05-21T03:15:34.161Z,1009.85
2016-05-21T03:16:34.194Z,1009.83
2016-05-21T03:17:34.228Z,1009.84
2016-05-21T03:18:34.247Z,1009.84
2016-05-21T03:19:34.296Z,1009.84
2016-05-21T03:20:34.331Z,1009.86
2016-05-21T03:21:34.364Z,1009.85
2016-05-21T03:22:34.383Z,1009.86
2016-05-21T03:23:34.433Z,1009.88
2016-05-21T03:24:34.450Z,1009.85
2016-05-21T03:25:34.500Z,1009.86
2016-05-21T03:26:34.533Z,1009.88
2016-05-21T03:27:34.569Z,1009.82
2016-05-21T03:28:34.602Z,1009.87
2016-05-21T03:29:34.635Z,1009.88
2016-05-21T03:30:34.669Z,1009.91
2016-05-21T03:31:34.688Z,1009.94
2016-05-21T03:32:34.737Z,1009.91
2016-05-21T03:33:34.771Z,1009.93
2016-05-21T03:34:34.790Z,1009.94
2016-05-21T03:35:34.824Z,1009.98
2016-05-21T03:36:34.873Z,1009.97
2016-05-21T03:37:34.892Z,1009.93
2016-05-21T03:38:34.926Z,1009.92
2016-05-21T03:39:34.975Z,1009.95
2016-05-21T03:40:35.009Z,1009.9
2016-05-21T03:41:35.028Z,1009.91
2016-05-21T03:42:35.061Z,1009.89
2016-05-21T03:43:35.111Z,1009.92
2016-05-21T03:44:35.129Z,1009.95
2016-05-21T03:45:35.178Z,1009.92
2016-05-21T03:46:35.197Z,1009.94
2016-05-21T03:47:35.247Z,1009.92
2016-05-21T03:48:35.265Z,1009.91
2016-05-21T03:49:35.314Z,1009.89
2016-05-21T03:50:35.333Z,1009.88
2016-05-21T03:51:35.367Z,1009.93
2016-05-21T03:52:35.400Z,1009.89
2016-05-21T03:53:35.435Z,1009.86
2016-05-21T03:54:35.469Z,1009.92
2016-05-21T03:55:35.502Z,1009.95
2016-05-21T03:56:35.536Z,1010
2016-05-21T03:57:35.571Z,1010.06
2016-05-21T03:58:35.605Z,1010.03
2016-05-21T03:59:35.638Z,1010.06
2016-05-21T04:00:35.672Z,1010.1
2016-05-21T04:01:35.721Z,1010.06
2016-05-21T04:02:35.740Z,1010.07
2016-05-21T04:03:35.774Z,1010.09
2016-05-21T04:04:35.808Z,1010.05
2016-05-21T04:05:35.842Z,1010.09
2016-05-21T04:06:35.876Z,1010.1
2016-05-21T04:07:35.910Z,1010.06
2016-05-21T04:08:35.943Z,1010.01
2016-05-21T04:09:35.978Z,1010.01
2016-05-21T04:10:36.012Z,1010.02
2016-05-21T04:11:36.045Z,1010.04
2016-05-21T04:12:36.095Z,1009.96
2016-05-21T04:13:36.114Z,1009.99
2016-05-21T04:14:36.148Z,1009.96
2016-05-21T04:15:36.182Z,1009.96
2016-05-21T04:16:36.231Z,1009.94
2016-05-21T04:17:36.250Z,1009.94
2016-05-21T04:18:36.283Z,1009.91
2016-05-21T04:19:36.333Z,1009.89
2016-05-21T04:20:36.351Z,1009.92
2016-05-21T04:21:36.386Z,1009.89
2016-05-21T04:22:36.419Z,1009.89
2016-05-21T04:23:36.453Z,1009.89
2016-05-21T04:24:36.486Z,1009.88
2016-05-21T04:25:36.522Z,1009.91
2016-05-21T04:26:36.554Z,1009.87
2016-05-21T04:27:36.588Z,1009.89
2016-05-21T04:28:36.638Z,1009.89
2016-05-21T04:29:36.657Z,1009.86
2016-05-21T04:30:36.691Z,1009.85
2016-05-21T04:31:36.740Z,1009.89
2016-05-21T04:32:36.774Z,1009.85
2016-05-21T04:33:36.792Z,1009.85
2016-05-21T04:34:36.841Z,1009.82
2016-05-21T04:35:36.876Z,1009.82
2016-05-21T04:36:36.909Z,1009.8
2016-05-21T04:37:36.944Z,1009.72
2016-05-21T04:38:36.977Z,1009.74
2016-05-21T04:39:37.012Z,1009.74
2016-05-21T04:40:37.046Z,1009.76
2016-05-21T04:41:37.079Z,1009.75
2016-05-21T04:42:37.113Z,1009.78
2016-05-21T04:43:37.147Z,1009.74
2016-05-21T04:44:37.181Z,1009.76
2016-05-21T04:45:37.215Z,1009.77
2016-05-21T04:46:37.249Z,1009.76
2016-05-21T04:47:37.283Z,1009.69
2016-05-21T04:48:37.317Z,1009.73
2016-05-21T04:49:37.367Z,1009.75
2016-05-21T04:50:37.401Z,1009.77
2016-05-21T04:51:37.434Z,1009.74
2016-05-21T04:52:37.469Z,1009.74
2016-05-21T04:53:37.502Z,1009.73
2016-05-21T04:54:37.536Z,1009.73
2016-05-21T04:55:37.570Z,1009.73
2016-05-21T04:56:37.620Z,1009.71
2016-05-21T04:57:37.653Z,1009.68
2016-05-21T04:58:37.671Z,1009.68
2016-05-21T04:59:37.706Z,1009.64
2016-05-21T05:00:37.755Z,1009.67
2016-05-21T05:01:37.789Z,1009.62
2016-05-21T05:02:37.823Z,1009.66
2016-05-21T05:03:37.857Z,1009.63
2016-05-21T05:04:37.891Z,1009.62
2016-05-21T05:05:37.925Z,1009.63
2016-05-21T05:06:37.959Z,1009.63
2016-05-21T05:07:37.993Z,1009.65
2016-05-21T05:08:38.042Z,1009.64
2016-05-21T05:09:38.077Z,1009.63
2016-05-21T05:10:38.110Z,1009.65
2016-05-21T05:11:38.145Z,1009.6
2016-05-21T05:12:38.179Z,1009.66
2016-05-21T05:13:38.212Z,1009.68
2016-05-21T05:14:38.246Z,1009.65
2016-05-21T05:15:38.281Z,1009.67
2016-05-21T05:16:38.330Z,1009.66
2016-05-21T05:17:38.379Z,1009.62
2016-05-21T05:18:38.398Z,1009.66
2016-05-21T05:19:38.431Z,1009.64
2016-05-21T05:20:38.465Z,1009.64
2016-05-21T05:21:38.500Z,1009.62
2016-05-21T05:22:38.533Z,1009.63
2016-05-21T05:23:38.583Z,1009.59
2016-05-21T05:24:38.617Z,1009.59
2016-05-21T05:25:38.650Z,1009.63
2016-05-21T05:26:38.685Z,1009.65
2016-05-21T05:27:38.719Z,1009.64
2016-05-21T05:28:38.752Z,1009.66
2016-05-21T05:29:38.803Z,1009.68
2016-05-21T05:30:38.821Z,1009.67
2016-05-21T05:31:38.869Z,1009.69
2016-05-21T05:32:38.904Z,1009.66
2016-05-21T05:33:38.938Z,1009.68
2016-05-21T05:34:38.972Z,1009.67
2016-05-21T05:35:39.021Z,1009.63
2016-05-21T05:36:39.041Z,1009.59
2016-05-21T05:37:39.089Z,1009.61
2016-05-21T05:38:39.123Z,1009.59
2016-05-21T05:39:39.173Z,1009.57
2016-05-21T05:40:39.191Z,1009.59
2016-05-21T05:41:39.240Z,1009.61
2016-05-21T05:42:39.259Z,1009.62
2016-05-21T05:43:39.293Z,1009.61
2016-05-21T05:44:39.343Z,1009.64
2016-05-21T05:45:39.376Z,1009.62
2016-05-21T05:46:39.410Z,1009.64
2016-05-21T05:47:39.444Z,1009.62
2016-05-21T05:48:39.478Z,1009.58
2016-05-21T05:49:39.512Z,1009.58
2016-05-21T05:50:39.562Z,1009.58
2016-05-21T05:51:39.595Z,1009.59
2016-05-21T05:52:39.630Z,1009.6
2016-05-21T05:53:39.664Z,1009.59
2016-05-21T05:54:39.697Z,1009.63
2016-05-21T05:55:39.731Z,1009.62
2016-05-21T05:56:39.781Z,1009.63
2016-05-21T05:57:39.815Z,1009.57
2016-05-21T05:58:39.849Z,1009.64
2016-05-21T05:59:39.883Z,1009.57
2016-05-21T06:00:39.916Z,1009.6
2016-05-21T06:01:39.950Z,1009.6
2016-05-21T06:02:39.985Z,1009.6
2016-05-21T06:03:40.035Z,1009.65
2016-05-21T06:04:40.069Z,1009.69
2016-05-21T06:05:40.102Z,1009.66
2016-05-21T06:06:40.136Z,1009.7
2016-05-21T06:07:40.170Z,1009.7
2016-05-21T06:08:40.204Z,1009.68
2016-05-21T06:09:40.254Z,1009.69
2016-05-21T06:10:40.288Z,1009.66
2016-05-21T06:11:40.321Z,1009.7
2016-05-21T06:12:40.355Z,1009.69
2016-05-21T06:13:40.390Z,1009.71
2016-05-21T06:14:40.439Z,1009.71
2016-05-21T06:15:40.457Z,1009.74
2016-05-21T06:16:40.507Z,1009.7
2016-05-21T06:17:40.540Z,1009.69
2016-05-21T06:18:40.575Z,1009.76
2016-05-21T06:19:40.609Z,1009.75
2016-05-21T06:20:40.658Z,1009.75
2016-05-21T06:21:40.692Z,1009.78
2016-05-21T06:22:40.726Z,1009.85
2016-05-21T06:23:40.760Z,1009.81
2016-05-21T06:24:40.794Z,1009.82
2016-05-21T06:25:40.844Z,1009.79
2016-05-21T06:26:40.878Z,1009.79
2016-05-21T06:27:40.911Z,1009.79
2016-05-21T06:28:40.945Z,1009.79
2016-05-21T06:29:40.995Z,1009.76
2016-05-21T06:30:41.028Z,1009.75
2016-05-21T06:31:41.063Z,1009.81
2016-05-21T06:32:41.096Z,1009.82
2016-05-21T06:33:41.130Z,1009.82
2016-05-21T06:34:41.164Z,1009.81
2016-05-21T06:35:41.214Z,1009.79
2016-05-21T06:36:41.249Z,1009.78
2016-05-21T06:37:41.282Z,1009.74
2016-05-21T06:38:41.316Z,1009.73
2016-05-21T06:39:41.366Z,1009.71
2016-05-21T06:40:41.400Z,1009.72
2016-05-21T06:41:41.464Z,1009.7
2016-05-21T06:42:41.468Z,1009.7
2016-05-21T06:43:41.517Z,1009.69
2016-05-21T06:44:41.551Z,1009.69
2016-05-21T06:45:41.584Z,1009.71
2016-05-21T06:46:41.618Z,1009.72
2016-05-21T06:47:41.668Z,1009.71
2016-05-21T06:48:41.702Z,1009.79
2016-05-21T06:49:41.737Z,1009.74
2016-05-21T06:50:41.770Z,1009.78
2016-05-21T06:51:41.804Z,1009.75
2016-05-21T06:52:41.853Z,1009.78
2016-05-21T06:53:41.887Z,1009.77
2016-05-21T06:54:41.922Z,1009.77
2016-05-21T06:55:41.956Z,1009.81
2016-05-21T06:56:42.005Z,1009.75
2016-05-21T06:57:42.039Z,1009.77
2016-05-21T06:58:42.073Z,1009.79
2016-05-21T06:59:42.106Z,1009.77
2016-05-21T07:00:42.156Z,1009.74
2016-05-21T07:01:42.191Z,1009.77
2016-05-21T07:02:42.224Z,1009.74
2016-05-21T07:03:42.258Z,1009.7
2016-05-21T07:04:42.308Z,1009.73
2016-05-21T07:05:42.342Z,1009.76
2016-05-21T07:06:42.375Z,1009.73
2016-05-21T07:07:42.410Z,1009.72
2016-05-21T07:08:42.460Z,1009.65
2016-05-21T07:09:42.493Z,1009.69
2016-05-21T07:10:42.526Z,1009.63
2016-05-21T07:11:42.921Z,1009.64
2016-05-21T07:12:42.610Z,1009.65
2016-05-21T07:13:42.644Z,1009.68
2016-05-21T07:14:42.679Z,1009.65
2016-05-21T07:15:42.728Z,1009.71
2016-05-21T07:16:42.762Z,1009.72
2016-05-21T07:17:42.796Z,1009.69
2016-05-21T07:18:42.830Z,1009.74
2016-05-21T07:19:42.879Z,1009.77
2016-05-21T07:20:42.913Z,1009.73
2016-05-21T07:21:42.948Z,1009.77
2016-05-21T07:22:42.997Z,1009.78
2016-05-21T07:23:43.031Z,1009.76
2016-05-21T07:24:43.064Z,1009.8
2016-05-21T07:25:43.115Z,1009.76
2016-05-21T07:26:43.148Z,1009.82
2016-05-21T07:27:43.181Z,1009.76
2016-05-21T07:28:43.232Z,1009.8
2016-05-21T07:29:43.266Z,1009.76
2016-05-21T07:30:43.315Z,1009.78
2016-05-21T07:31:43.350Z,1009.76
2016-05-21T07:32:43.383Z,1009.75
2016-05-21T07:33:43.417Z,1009.73
2016-05-21T07:34:43.466Z,1009.74
2016-05-21T07:35:43.500Z,1009.75
2016-05-21T07:36:43.550Z,1009.76
2016-05-21T07:37:43.599Z,1009.76
2016-05-21T07:38:43.618Z,1009.71
2016-05-21T07:39:43.668Z,1009.67
2016-05-21T07:40:43.702Z,1009.69
2016-05-21T07:41:44.298Z,1009.67
2016-05-21T07:42:43.785Z,1009.71
2016-05-21T07:43:43.819Z,1009.68
2016-05-21T07:44:43.868Z,1009.67
2016-05-21T07:45:43.902Z,1009.64
2016-05-21T07:46:43.937Z,1009.63
2016-05-21T07:47:43.986Z,1009.64
2016-05-21T07:48:44.020Z,1009.66
2016-05-21T07:49:44.070Z,1009.64
2016-05-21T07:50:44.104Z,1009.68
2016-05-21T07:51:44.137Z,1009.68
2016-05-21T07:52:44.186Z,1009.68
2016-05-21T07:53:44.221Z,1009.72
2016-05-21T07:54:44.270Z,1009.71
2016-05-21T07:55:44.304Z,1009.67
2016-05-21T07:56:44.354Z,1009.61
2016-05-21T07:57:44.403Z,1009.67
2016-05-21T07:58:44.437Z,1009.7
2016-05-21T07:59:44.472Z,1009.68
2016-05-21T08:00:44.521Z,1009.67
2016-05-21T08:01:44.555Z,1009.6
2016-05-21T08:02:44.605Z,1009.55
2016-05-21T08:03:44.653Z,1009.58
2016-05-21T08:04:44.688Z,1009.59
2016-05-21T08:05:44.722Z,1009.59
2016-05-21T08:06:44.772Z,1009.62
2016-05-21T08:07:44.805Z,1009.66
2016-05-21T08:08:44.855Z,1009.6
2016-05-21T08:09:44.889Z,1009.64
2016-05-21T08:10:44.938Z,1009.72
2016-05-21T08:11:44.972Z,1009.71
2016-05-21T08:12:45.007Z,1009.67
2016-05-21T08:13:45.055Z,1009.66
2016-05-21T08:14:45.091Z,1009.64
2016-05-21T08:15:45.139Z,1009.63
2016-05-21T08:16:45.174Z,1009.65
2016-05-21T08:17:45.223Z,1009.6
2016-05-21T08:18:45.257Z,1009.65
2016-05-21T08:19:45.307Z,1009.61
2016-05-21T08:20:45.340Z,1009.61
2016-05-21T08:21:45.390Z,1009.64
2016-05-21T08:22:45.424Z,1009.6
2016-05-21T08:23:45.457Z,1009.6
2016-05-21T08:24:45.507Z,1009.58
2016-05-21T08:25:45.542Z,1009.59
2016-05-21T08:26:45.778Z,1009.59
2016-05-21T08:27:45.625Z,1009.61
2016-05-21T08:28:45.675Z,1009.58
2016-05-21T08:29:45.709Z,1009.61
2016-05-21T08:30:45.742Z,1009.68
2016-05-21T08:31:45.792Z,1009.56
2016-05-21T08:32:45.825Z,1009.58
2016-05-21T08:33:45.875Z,1009.58
2016-05-21T08:34:45.909Z,1009.58
2016-05-21T08:35:45.944Z,1009.6
2016-05-21T08:36:45.993Z,1009.61
2016-05-21T08:37:46.027Z,1009.67
2016-05-21T08:38:46.077Z,1009.66
2016-05-21T08:39:46.110Z,1009.64
2016-05-21T08:40:46.160Z,1009.58
2016-05-21T08:41:46.194Z,1009.61
2016-05-21T08:42:46.227Z,1009.6
2016-05-21T08:43:46.277Z,1009.58
2016-05-21T08:44:46.327Z,1009.57
2016-05-21T08:45:46.360Z,1009.61
2016-05-21T08:46:46.394Z,1009.63
2016-05-21T08:47:46.444Z,1009.57
2016-05-21T08:48:46.479Z,1009.59
2016-05-21T08:49:46.527Z,1009.58
2016-05-21T08:50:46.577Z,1009.56
2016-05-21T08:51:46.611Z,1009.57
2016-05-21T08:52:46.660Z,1009.59
2016-05-21T08:53:46.695Z,1009.61
2016-05-21T08:54:46.745Z,1009.61
2016-05-21T08:55:46.778Z,1009.58
2016-05-21T08:56:47.218Z,1009.67
2016-05-21T08:57:46.862Z,1009.62
2016-05-21T08:58:46.912Z,1009.66
2016-05-21T08:59:46.945Z,1009.65
2016-05-21T09:00:46.995Z,1009.62
2016-05-21T09:01:47.028Z,1009.68
2016-05-21T09:02:47.079Z,1009.67
2016-05-21T09:03:47.112Z,1009.64
2016-05-21T09:04:47.161Z,1009.69
2016-05-21T09:05:47.196Z,1009.66
2016-05-21T09:06:47.245Z,1009.66
2016-05-21T09:07:47.280Z,1009.67
2016-05-21T09:08:47.329Z,1009.67
2016-05-21T09:09:47.364Z,1009.68
2016-05-21T09:10:47.413Z,1009.69
2016-05-21T09:11:47.447Z,1009.68
2016-05-21T09:12:47.496Z,1009.66
2016-05-21T09:13:47.530Z,1009.68
2016-05-21T09:14:47.580Z,1009.68
2016-05-21T09:15:47.613Z,1009.73
2016-05-21T09:16:47.663Z,1009.73
2016-05-21T09:17:47.719Z,1009.71
2016-05-21T09:18:47.790Z,1009.69
2016-05-21T09:19:47.844Z,1009.72
2016-05-21T09:20:47.915Z,1009.74
2016-05-21T09:21:47.986Z,1009.66
2016-05-21T09:22:48.011Z,1009.63
2016-05-21T09:23:48.069Z,1009.67
2016-05-21T09:24:48.126Z,1009.65
2016-05-21T09:25:48.168Z,1009.59
2016-05-21T09:26:48.209Z,1009.61
2016-05-21T09:27:48.261Z,1009.57
2016-05-21T09:28:48.313Z,1009.58
2016-05-21T09:29:48.350Z,1009.58
2016-05-21T09:30:48.402Z,1009.54
2016-05-21T09:31:48.439Z,1009.55
2016-05-21T09:32:48.474Z,1009.52
2016-05-21T09:33:48.524Z,1009.52
2016-05-21T09:34:48.560Z,1009.49
2016-05-21T09:35:48.610Z,1009.44
2016-05-21T09:36:48.646Z,1009.43
2016-05-21T09:37:48.695Z,1009.43
2016-05-21T09:38:48.746Z,1009.46
2016-05-21T09:39:48.780Z,1009.44
2016-05-21T09:40:48.829Z,1009.39
2016-05-21T09:41:48.865Z,1009.34
2016-05-21T09:42:48.915Z,1009.33
2016-05-21T09:43:48.948Z,1009.36
2016-05-21T09:44:48.997Z,1009.32
2016-05-21T09:45:49.031Z,1009.29
2016-05-21T09:46:49.096Z,1009.23
2016-05-21T09:47:49.131Z,1009.2
2016-05-21T09:48:49.165Z,1009.25
2016-05-21T09:49:49.213Z,1009.2
2016-05-21T09:50:49.264Z,1009.19
2016-05-21T09:51:49.297Z,1009.2
2016-05-21T09:52:49.347Z,1009.19
2016-05-21T09:53:49.396Z,1009.22
2016-05-21T09:54:49.430Z,1009.16
2016-05-21T09:55:49.480Z,1009.21
2016-05-21T09:56:49.529Z,1009.2
2016-05-21T09:57:49.563Z,1009.15
2016-05-21T09:58:49.613Z,1009.16
2016-05-21T09:59:49.663Z,1009.16
2016-05-21T10:00:49.696Z,1009.2
2016-05-21T10:01:49.746Z,1009.11
2016-05-21T10:02:49.796Z,1009.15
2016-05-21T10:03:49.830Z,1009.15
2016-05-21T10:04:49.879Z,1009.1
2016-05-21T10:05:49.929Z,1009.07
2016-05-21T10:06:49.979Z,1009.07
2016-05-21T10:07:50.012Z,1009.08
2016-05-21T10:08:50.062Z,1009.03
2016-05-21T10:09:50.112Z,1009.01
2016-05-21T10:10:50.145Z,1009.05
2016-05-21T10:11:50.195Z,1009.03
2016-05-21T10:12:50.245Z,1009.05
2016-05-21T10:13:50.293Z,1009.02
2016-05-21T10:14:50.343Z,1009.05
2016-05-21T10:15:50.377Z,1008.98
2016-05-21T10:16:50.427Z,1009
2016-05-21T10:17:50.476Z,1008.98
2016-05-21T10:18:50.525Z,1009.02
2016-05-21T10:19:50.559Z,1009.02
2016-05-21T10:20:50.610Z,1009.01
2016-05-21T10:21:50.659Z,1008.98
2016-05-21T10:22:50.709Z,1009.02
2016-05-21T10:23:50.759Z,1009.06
2016-05-21T10:24:50.808Z,1008.97
2016-05-21T10:25:50.857Z,1008.91
2016-05-21T10:26:50.891Z,1008.94
2016-05-21T10:27:50.956Z,1008.96
2016-05-21T10:28:50.991Z,1008.93
2016-05-21T10:29:51.040Z,1008.97
2016-05-21T10:30:51.089Z,1008.97
2016-05-21T10:31:51.124Z,1008.95
2016-05-21T10:32:51.174Z,1008.89
2016-05-21T10:33:51.222Z,1008.94
2016-05-21T10:34:51.272Z,1008.91
2016-05-21T10:35:51.322Z,1008.93
2016-05-21T10:36:51.372Z,1008.9
2016-05-21T10:37:51.405Z,1008.89
2016-05-21T10:38:51.455Z,1008.94
2016-05-21T10:39:51.505Z,1008.89
2016-05-21T10:40:51.554Z,1008.86
2016-05-21T10:41:51.603Z,1008.8
2016-05-21T10:42:51.637Z,1008.8
2016-05-21T10:43:51.687Z,1008.83
2016-05-21T10:44:51.737Z,1008.78
2016-05-21T10:45:51.801Z,1008.75
2016-05-21T10:46:51.836Z,1008.75
2016-05-21T10:47:51.885Z,1008.71
2016-05-21T10:48:51.935Z,1008.7
2016-05-21T10:49:51.984Z,1008.7
2016-05-21T10:50:52.018Z,1008.72
2016-05-21T10:51:52.084Z,1008.78
2016-05-21T10:52:52.118Z,1008.84
2016-05-21T10:53:52.167Z,1008.78
2016-05-21T10:54:52.217Z,1008.73
2016-05-21T10:55:52.267Z,1008.68
2016-05-21T10:56:52.301Z,1008.66
2016-05-21T10:57:52.349Z,1008.72
2016-05-21T10:58:52.400Z,1008.61
2016-05-21T10:59:52.449Z,1008.63
2016-05-21T11:00:52.499Z,1008.67
2016-05-21T11:01:52.532Z,1008.69
2016-05-21T11:02:52.583Z,1008.6
2016-05-21T11:03:52.632Z,1008.55
2016-05-21T11:04:52.680Z,1008.57
2016-05-21T11:05:52.730Z,1008.59
2016-05-21T11:06:52.780Z,1008.55
2016-05-21T11:07:52.814Z,1008.6
2016-05-21T11:08:52.863Z,1008.58
2016-05-21T11:09:52.913Z,1008.55
2016-05-21T11:10:52.963Z,1008.52
2016-05-21T11:11:53.466Z,1008.54
2016-05-21T11:12:53.046Z,1008.55
2016-05-21T11:13:53.096Z,1008.55
2016-05-21T11:14:53.146Z,1008.51
2016-05-21T11:15:53.195Z,1008.49
2016-05-21T11:16:53.229Z,1008.48
2016-05-21T11:17:53.279Z,1008.47
2016-05-21T11:18:53.328Z,1008.5
2016-05-21T11:19:53.378Z,1008.54
2016-05-21T11:20:53.412Z,1008.46
2016-05-21T11:21:53.461Z,1008.43
2016-05-21T11:22:53.511Z,1008.47
2016-05-21T11:23:53.561Z,1008.53
2016-05-21T11:24:53.594Z,1008.59
2016-05-21T11:25:53.644Z,1008.6
2016-05-21T11:26:53.693Z,1008.57
2016-05-21T11:27:53.728Z,1008.55
2016-05-21T11:28:53.792Z,1008.61
2016-05-21T11:29:53.842Z,1008.56
2016-05-21T11:30:53.875Z,1008.53
2016-05-21T11:31:53.925Z,1008.5
2016-05-21T11:32:53.960Z,1008.53
2016-05-21T11:33:54.009Z,1008.42
2016-05-21T11:34:54.058Z,1008.43
2016-05-21T11:35:54.108Z,1008.34
2016-05-21T11:36:54.142Z,1008.39
2016-05-21T11:37:54.192Z,1008.37
2016-05-21T11:38:54.241Z,1008.39
2016-05-21T11:39:54.291Z,1008.34
2016-05-21T11:40:54.324Z,1008.34
2016-05-21T11:41:54.374Z,1008.33
2016-05-21T11:42:54.423Z,1008.27
2016-05-21T11:43:54.458Z,1008.32
2016-05-21T11:44:54.507Z,1008.32
2016-05-21T11:45:54.557Z,1008.29
2016-05-21T11:46:54.607Z,1008.3
2016-05-21T11:47:54.657Z,1008.33
2016-05-21T11:48:54.706Z,1008.36
2016-05-21T11:49:54.740Z,1008.37
2016-05-21T11:50:54.789Z,1008.33
2016-05-21T11:51:54.839Z,1008.33
2016-05-21T11:52:54.889Z,1008.39
2016-05-21T11:53:54.937Z,1008.38
2016-05-21T11:54:54.972Z,1008.33
2016-05-21T11:55:55.022Z,1008.35
2016-05-21T11:56:55.071Z,1008.3
2016-05-21T11:57:55.120Z,1008.26
2016-05-21T11:58:55.155Z,1008.27
2016-05-21T11:59:55.203Z,1008.36
2016-05-21T12:00:55.253Z,1008.33
2016-05-21T12:01:55.302Z,1008.33
2016-05-21T12:02:55.337Z,1008.36
2016-05-21T12:03:55.387Z,1008.37
2016-05-21T12:04:55.436Z,1008.39
2016-05-21T12:05:55.469Z,1008.39
2016-05-21T12:06:55.519Z,1008.37
2016-05-21T12:07:55.569Z,1008.35